Aérodrome :
LOGIN :

S'inscrire | Disclaimer

   EN    FR    IT 

 










Légende :    VFR   VFR Marginal   IFR   IFR Intensif   IFR Très Intensif
Visi : 
Plafond : 
>= 8 km
>= 3000ft
5 à 8 km
1000 à 3000 ft
1500m à 5 km
500 à 1000 ft
800 à 1500m
200 à 500 ft
< 800m
< 200 ft
Symboles :   Orages  Brouillard  Fortes neiges  Fortes précipitations  Vent > 20 kt
SIGMETs :   Divers  Orages  Givrage  Turbulence  Onde Orograph.  Cendres Volcan.






- Altitude de l'aérodrome : 72 ft
- Code IATA : UDE


EHVK - Volkel Airbase

DERNIER METAR :
  • 251555Z AUTO 24009KT 9999 FEW020 SCT025 BKN039 04/01 Q1007 BLU

METARs EXPIRÉS :
  • 251525Z AUTO 24007KT 220V280 9999 FEW029 SCT033 BKN042 04/M01 Q1007 BLU
  • 251455Z AUTO 26006KT 230V300 9999 BKN230 05/M01 Q1007 BLU
  • 251425Z AUTO 24007KT 9999 OVC210 05/M00 Q1006 BLU NOSIG
  • 251355Z AUTO 26006KT 9999 BKN210 05/M01 Q1006 BLU NOSIG
  • 251325Z AUTO 28005KT 250V310 9999 NCD 05/M01 Q1006 BLU NOSIG

TAF TAF EHVK
Valide du 25 à 06h jusqu'au 25 à 18h UTC


250435Z 2506/2518 02004KT 6000 BKN012 OVC022
BECMG 2506/2508 34005KT FEW030
BECMG 2511/2513 29006KT
BECMG 2514/2516 24007KT



MET'MAP, la Météo Aéronautique d'un coup d'oeil ! - Copyright ORBIFLY Décembre 2007 - Disclaimer

ORBIFLY MET'MAP TEAM :

Programmation & Développement : Alexandra Zaïnal
Sur une idée originale de : Baudouin d'Aumeries
Assistance à la programmation : Marc-Olivier Méhu
Soutien technique & logistique : Manuel Goepfert

Contact : metmap@orbifly.com




SOURCES & CREDITS :

   NOAA